createdAt,value
2017-12-13T00:00:05.621Z,23.33
2017-12-13T00:02:33.217Z,17.93
2017-12-13T00:05:01.694Z,23.20
2017-12-13T00:07:29.306Z,21.33
2017-12-13T00:09:56.917Z,22.17
2017-12-13T00:12:24.523Z,24.93
2017-12-13T00:14:52.121Z,20.97
2017-12-13T00:17:19.748Z,23.17
2017-12-13T00:19:48.102Z,23.93
2017-12-13T00:22:15.732Z,19.80
2017-12-13T00:24:43.330Z,20.27
2017-12-13T00:27:11.729Z,24.97
2017-12-13T00:29:40.082Z,24.17
2017-12-13T00:32:08.497Z,21.37
2017-12-13T00:34:36.133Z,21.37
2017-12-13T00:37:03.738Z,19.90
2017-12-13T00:39:31.338Z,20.13
2017-12-13T00:41:59.024Z,17.03
2017-12-13T00:44:29.211Z,21.90
2017-12-13T00:46:56.834Z,21.23
2017-12-13T00:49:24.452Z,19.80
2017-12-13T00:51:52.826Z,16.77
2017-12-13T00:54:20.447Z,17.17
2017-12-13T00:56:48.073Z,21.30
2017-12-13T00:59:15.759Z,21.60
2017-12-13T01:01:44.331Z,22.23
2017-12-13T01:04:11.946Z,18.37
2017-12-13T01:06:39.548Z,20.03
2017-12-13T01:09:07.153Z,15.03
2017-12-13T01:11:34.752Z,19.50
2017-12-13T01:14:03.125Z,20.83
2017-12-13T01:16:31.534Z,20.00
2017-12-13T01:18:59.159Z,20.13
2017-12-13T01:21:26.778Z,18.07
2017-12-13T01:23:54.450Z,21.00
2017-12-13T01:26:22.057Z,16.63
2017-12-13T01:28:50.411Z,18.77
2017-12-13T01:31:18.037Z,19.47
2017-12-13T01:33:45.630Z,18.37
2017-12-13T01:36:13.249Z,21.93
2017-12-13T01:38:41.505Z,19.67
2017-12-13T01:41:09.181Z,17.60
2017-12-13T01:43:36.776Z,19.97
2017-12-13T01:46:04.387Z,19.97
2017-12-13T01:48:31.986Z,17.13
2017-12-13T01:50:59.642Z,20.23
2017-12-13T01:53:27.235Z,18.93
2017-12-13T01:55:55.606Z,17.93
2017-12-13T01:58:23.192Z,19.20
2017-12-13T02:00:51.553Z,17.90
2017-12-13T02:03:20.010Z,22.53
2017-12-13T02:05:48.427Z,20.03
2017-12-13T02:08:16.780Z,21.63
2017-12-13T02:10:44.416Z,16.67
2017-12-13T02:13:12.079Z,21.47
2017-12-13T02:15:40.474Z,17.77
2017-12-13T02:18:08.081Z,18.27
2017-12-13T02:20:35.677Z,19.57
2017-12-13T02:23:03.291Z,20.23
2017-12-13T02:25:30.883Z,20.77
2017-12-13T02:27:58.487Z,21.50
2017-12-13T02:30:26.097Z,20.83
2017-12-13T02:32:53.699Z,15.63
2017-12-13T02:35:21.367Z,17.00
2017-12-13T02:37:49.211Z,21.43
2017-12-13T02:40:28.685Z,20.90
2017-12-13T02:42:57.062Z,21.97
2017-12-13T02:45:25.458Z,26.07
2017-12-13T02:47:53.080Z,20.67
2017-12-13T02:50:20.697Z,21.00
2017-12-13T02:52:48.305Z,18.60
2017-12-13T02:55:15.913Z,22.37
2017-12-13T02:57:43.518Z,25.93
2017-12-13T03:00:12.202Z,19.93
2017-12-13T03:02:39.830Z,21.10
2017-12-13T03:05:07.468Z,23.33
2017-12-13T03:07:35.059Z,20.27
2017-12-13T03:10:02.777Z,19.17
2017-12-13T03:12:31.191Z,23.83
2017-12-13T03:14:58.804Z,21.33
2017-12-13T03:17:26.413Z,22.50
2017-12-13T03:19:54.022Z,26.27
2017-12-13T03:22:21.636Z,21.17
2017-12-13T03:24:49.259Z,24.53
2017-12-13T03:27:17.675Z,21.73
2017-12-13T03:29:45.270Z,19.10
2017-12-13T03:32:13.655Z,24.93
2017-12-13T03:34:41.347Z,25.77
2017-12-13T03:37:09.726Z,19.80
2017-12-13T03:39:38.083Z,19.87
2017-12-13T03:42:05.705Z,18.87
2017-12-13T03:44:33.318Z,23.90
2017-12-13T03:47:01.698Z,27.10
2017-12-13T03:49:30.077Z,25.40
2017-12-13T03:51:58.477Z,16.40
2017-12-13T03:54:26.070Z,21.83
2017-12-13T03:56:53.684Z,22.33
2017-12-13T03:59:22.084Z,20.47
2017-12-13T04:01:49.665Z,21.73
2017-12-13T04:04:17.809Z,19.90
2017-12-13T04:06:45.405Z,20.63
2017-12-13T04:09:13.811Z,19.33
2017-12-13T04:11:41.425Z,21.57
2017-12-13T04:14:09.031Z,21.80
2017-12-13T04:16:36.659Z,22.60
2017-12-13T04:19:04.308Z,18.57
2017-12-13T04:21:31.918Z,27.63
2017-12-13T04:23:59.534Z,20.53
2017-12-13T04:26:27.161Z,17.77
2017-12-13T04:28:55.526Z,21.63
2017-12-13T04:31:23.150Z,15.40
2017-12-13T04:33:50.744Z,18.20
2017-12-13T04:36:18.351Z,17.47
2017-12-13T04:38:45.963Z,18.30
2017-12-13T04:41:13.620Z,22.10
2017-12-13T04:43:41.233Z,20.27
2017-12-13T04:46:08.865Z,28.73
2017-12-13T04:48:37.234Z,17.63
2017-12-13T04:51:05.618Z,25.63
2017-12-13T04:53:33.985Z,29.77
2017-12-13T04:56:02.375Z,57.00
2017-12-13T04:58:30.762Z,42.30
2017-12-13T05:00:58.419Z,54.77
2017-12-13T05:03:26.821Z,36.03
2017-12-13T05:05:54.431Z,22.43
2017-12-13T05:08:22.407Z,27.67
2017-12-13T05:10:50.771Z,24.90
2017-12-13T05:13:18.402Z,24.23
2017-12-13T05:15:46.018Z,22.70
2017-12-13T05:18:14.687Z,24.37
2017-12-13T05:20:42.278Z,24.93
2017-12-13T05:23:10.665Z,19.53
2017-12-13T05:25:38.532Z,28.53
2017-12-13T05:28:06.233Z,29.90
2017-12-13T05:30:33.875Z,24.70
2017-12-13T05:33:01.487Z,23.27
2017-12-13T05:35:29.879Z,31.80
2017-12-13T05:37:58.774Z,23.67
2017-12-13T05:40:26.565Z,27.97
2017-12-13T05:42:54.189Z,27.40
2017-12-13T05:45:22.582Z,25.77
2017-12-13T05:47:50.949Z,26.13
2017-12-13T05:50:19.363Z,27.77
2017-12-13T05:52:47.233Z,32.43
2017-12-13T05:55:14.859Z,25.93
2017-12-13T05:57:43.219Z,24.60
2017-12-13T06:00:10.839Z,24.90
2017-12-13T06:02:38.469Z,23.80
2017-12-13T06:05:06.087Z,27.07
2017-12-13T06:07:33.811Z,26.73
2017-12-13T06:10:01.424Z,29.77
2017-12-13T06:12:29.801Z,29.13
2017-12-13T06:14:57.409Z,29.53
2017-12-13T06:17:25.042Z,26.40
2017-12-13T06:19:53.414Z,28.33
2017-12-13T06:22:21.811Z,28.93
2017-12-13T06:24:49.415Z,32.03
2017-12-13T06:27:17.892Z,27.70
2017-12-13T06:29:45.502Z,27.77
2017-12-13T06:32:13.873Z,26.83
2017-12-13T06:34:42.655Z,30.90
2017-12-13T06:37:11.012Z,27.50
2017-12-13T06:39:38.630Z,29.00
2017-12-13T06:42:06.258Z,28.93
2017-12-13T06:44:34.652Z,29.67
2017-12-13T06:47:03.362Z,28.10
2017-12-13T06:49:31.046Z,25.40
2017-12-13T06:51:58.657Z,24.57
2017-12-13T06:54:27.046Z,29.27
2017-12-13T06:56:54.665Z,28.93
2017-12-13T06:59:22.262Z,25.77
2017-12-13T07:01:50.649Z,32.30
2017-12-13T07:04:18.327Z,35.07
2017-12-13T07:06:45.953Z,31.87
2017-12-13T07:09:14.379Z,31.33
2017-12-13T07:11:42.402Z,33.80
2017-12-13T07:14:10.795Z,35.87
2017-12-13T07:16:38.405Z,32.47
2017-12-13T07:19:06.052Z,34.67
2017-12-13T07:21:33.682Z,34.63
2017-12-13T07:24:01.298Z,33.23
2017-12-13T07:26:28.944Z,36.80
2017-12-13T07:28:57.337Z,35.33
2017-12-13T07:31:24.922Z,30.40
2017-12-13T07:33:53.311Z,33.50
2017-12-13T07:36:21.709Z,34.57
2017-12-13T07:38:49.340Z,34.23
2017-12-13T07:41:17.723Z,33.20
2017-12-13T07:43:46.117Z,31.93
2017-12-13T07:46:13.737Z,31.87
2017-12-13T07:48:41.333Z,38.33
2017-12-13T07:51:08.930Z,32.93
2017-12-13T07:53:36.593Z,32.13
2017-12-13T07:56:04.203Z,33.20
2017-12-13T07:58:32.614Z,33.70
2017-12-13T08:01:00.239Z,35.87
2017-12-13T08:03:28.705Z,35.13
2017-12-13T08:05:56.330Z,36.63
2017-12-13T08:08:23.946Z,37.23
2017-12-13T08:10:52.535Z,37.17
2017-12-13T08:13:20.901Z,34.27
2017-12-13T08:15:49.290Z,40.67
2017-12-13T08:18:17.661Z,43.87
2017-12-13T08:20:46.102Z,39.00
2017-12-13T08:23:13.725Z,37.10
2017-12-13T08:25:41.327Z,33.67
2017-12-13T08:28:08.927Z,35.67
2017-12-13T08:30:37.329Z,37.83
2017-12-13T08:33:04.930Z,37.63
2017-12-13T08:35:32.551Z,41.40
2017-12-13T08:38:00.210Z,37.53
2017-12-13T08:40:27.813Z,40.93
2017-12-13T08:42:55.385Z,35.20
2017-12-13T08:45:23.004Z,38.17
2017-12-13T08:47:50.871Z,35.70
2017-12-13T08:50:18.574Z,37.87
2017-12-13T08:52:46.178Z,34.57
2017-12-13T08:55:13.816Z,39.80
2017-12-13T08:57:42.215Z,36.43
2017-12-13T09:00:09.863Z,37.00
2017-12-13T09:02:38.240Z,33.40
2017-12-13T09:05:06.597Z,32.97
2017-12-13T09:07:34.213Z,36.77
2017-12-13T09:10:01.813Z,33.53
2017-12-13T09:12:29.428Z,38.33
2017-12-13T09:14:57.037Z,34.33
2017-12-13T09:17:24.640Z,33.20
2017-12-13T09:19:52.227Z,32.70
2017-12-13T09:22:19.835Z,37.20
2017-12-13T09:24:48.276Z,34.60
2017-12-13T09:27:15.893Z,32.47
2017-12-13T09:29:44.256Z,28.67
2017-12-13T09:32:12.634Z,30.57
2017-12-13T09:34:41.159Z,34.73
2017-12-13T09:37:08.781Z,32.70
2017-12-13T09:39:37.153Z,27.37
2017-12-13T09:42:05.552Z,28.17
2017-12-13T09:44:33.143Z,29.57
2017-12-13T09:47:01.434Z,27.90
2017-12-13T09:49:29.056Z,27.17
2017-12-13T09:51:56.695Z,27.20
2017-12-13T09:54:25.154Z,31.37
2017-12-13T09:56:52.791Z,28.30
2017-12-13T09:59:20.655Z,24.33
2017-12-13T10:01:48.261Z,29.50
2017-12-13T10:04:16.666Z,25.40
2017-12-13T10:06:44.282Z,22.87
2017-12-13T10:09:11.887Z,22.93
2017-12-13T10:11:39.508Z,25.07
2017-12-13T10:14:07.126Z,21.77
2017-12-13T10:16:34.725Z,19.40
2017-12-13T10:19:02.435Z,21.10
2017-12-13T10:21:30.051Z,19.83
2017-12-13T10:23:57.665Z,17.70
2017-12-13T10:26:25.278Z,20.20
2017-12-13T10:28:52.906Z,19.57
2017-12-13T10:31:20.741Z,19.23
2017-12-13T10:33:48.329Z,20.90
2017-12-13T10:36:15.933Z,20.23
2017-12-13T10:38:44.310Z,22.03
2017-12-13T10:41:12.906Z,20.43
2017-12-13T10:43:41.638Z,20.33
2017-12-13T10:46:09.281Z,19.93
2017-12-13T10:48:36.879Z,20.00
2017-12-13T10:51:04.488Z,19.00
2017-12-13T10:53:32.088Z,19.33
2017-12-13T10:55:59.702Z,17.60
2017-12-13T10:58:27.297Z,18.73
2017-12-13T11:00:54.889Z,18.30
2017-12-13T11:03:22.534Z,20.97
2017-12-13T11:05:50.142Z,19.70
2017-12-13T11:08:17.753Z,17.40
2017-12-13T11:10:45.368Z,17.30
2017-12-13T11:13:12.994Z,18.47
2017-12-13T11:15:40.638Z,18.53
2017-12-13T11:18:08.206Z,17.70
2017-12-13T11:20:35.802Z,20.83
2017-12-13T11:23:04.178Z,17.90
2017-12-13T11:25:32.570Z,14.87
2017-12-13T11:28:00.165Z,16.50
2017-12-13T11:30:27.769Z,21.07
2017-12-13T11:32:56.153Z,15.60
2017-12-13T11:35:25.967Z,17.53
2017-12-13T11:37:54.331Z,17.90
2017-12-13T11:40:22.709Z,17.40
2017-12-13T11:42:51.094Z,17.10
2017-12-13T11:45:19.477Z,15.33
2017-12-13T11:47:47.863Z,15.03
2017-12-13T11:50:16.267Z,16.33
2017-12-13T11:52:43.895Z,11.97
2017-12-13T11:55:12.289Z,14.23
2017-12-13T11:57:39.887Z,13.87
2017-12-13T12:00:07.487Z,15.37
2017-12-13T12:02:35.842Z,12.33
2017-12-13T12:05:03.433Z,15.77
2017-12-13T12:07:31.867Z,14.70
2017-12-13T12:09:59.495Z,13.03
2017-12-13T12:12:27.120Z,12.00
2017-12-13T12:14:54.801Z,12.10
2017-12-13T12:17:23.154Z,12.93
2017-12-13T12:19:50.798Z,10.33
2017-12-13T12:22:18.407Z,10.87
2017-12-13T12:24:46.006Z,10.77
2017-12-13T12:27:13.617Z,12.73
2017-12-13T12:29:41.958Z,9.63
2017-12-13T12:32:09.561Z,11.70
2017-12-13T12:34:37.979Z,10.13
2017-12-13T12:37:05.630Z,8.00
2017-12-13T12:39:33.449Z,10.10
2017-12-13T12:42:01.836Z,8.90
2017-12-13T12:44:30.197Z,8.77
2017-12-13T12:46:57.807Z,8.23
2017-12-13T12:49:25.419Z,9.13
2017-12-13T12:51:53.007Z,9.50
2017-12-13T12:54:20.631Z,9.27
2017-12-13T12:56:48.244Z,8.57
2017-12-13T12:59:15.854Z,8.50
2017-12-13T13:01:43.461Z,10.67
2017-12-13T13:04:11.075Z,8.07
2017-12-13T13:06:38.695Z,8.77
2017-12-13T13:09:06.302Z,10.23
2017-12-13T13:11:33.914Z,8.37
2017-12-13T13:14:01.540Z,9.80
2017-12-13T13:16:29.898Z,8.83
2017-12-13T13:18:57.525Z,8.07
2017-12-13T13:21:25.119Z,6.60
2017-12-13T13:23:54.030Z,11.17
2017-12-13T13:26:21.700Z,7.37
2017-12-13T13:28:49.316Z,6.83
2017-12-13T13:31:16.917Z,10.03
2017-12-13T13:33:45.271Z,6.37
2017-12-13T13:36:12.858Z,10.17
2017-12-13T13:38:41.199Z,7.17
2017-12-13T13:41:08.820Z,8.80
2017-12-13T13:43:36.418Z,6.30
2017-12-13T13:46:04.145Z,6.57
2017-12-13T13:48:31.793Z,9.43
2017-12-13T13:50:59.367Z,6.63
2017-12-13T13:53:26.982Z,6.47
2017-12-13T13:55:54.610Z,7.43
2017-12-13T13:58:22.432Z,8.67
2017-12-13T14:00:50.800Z,5.97
2017-12-13T14:03:19.167Z,5.97
2017-12-13T14:05:46.770Z,5.93
2017-12-13T14:08:14.393Z,5.27
2017-12-13T14:10:41.997Z,6.53
2017-12-13T14:13:09.615Z,7.63
2017-12-13T14:15:37.962Z,8.30
2017-12-13T14:18:05.581Z,5.57
2017-12-13T14:20:33.153Z,7.17
2017-12-13T14:23:00.778Z,8.80
2017-12-13T14:25:29.132Z,9.30
2017-12-13T14:27:56.741Z,8.03
2017-12-13T14:30:24.335Z,8.77
2017-12-13T14:32:51.952Z,6.93
2017-12-13T14:35:19.538Z,7.50
2017-12-13T14:37:47.154Z,8.70
2017-12-13T14:40:15.514Z,6.03
2017-12-13T14:42:43.131Z,7.70
2017-12-13T14:45:10.736Z,7.77
2017-12-13T14:47:39.328Z,5.83
2017-12-13T14:50:06.947Z,6.63
2017-12-13T14:52:34.578Z,6.30
2017-12-13T14:55:02.188Z,7.77
2017-12-13T14:57:29.874Z,4.97
2017-12-13T14:59:57.487Z,5.20
2017-12-13T15:02:25.092Z,3.80
2017-12-13T15:04:52.682Z,5.30
2017-12-13T15:07:20.289Z,5.40
2017-12-13T15:09:47.911Z,5.77
2017-12-13T15:12:15.536Z,4.13
2017-12-13T15:14:43.123Z,4.00
2017-12-13T15:17:10.792Z,4.83
2017-12-13T15:19:38.394Z,3.43
2017-12-13T15:22:06.757Z,4.23
2017-12-13T15:24:34.385Z,5.00
2017-12-13T15:27:01.986Z,3.70
2017-12-13T15:29:29.593Z,4.40
2017-12-13T15:31:57.961Z,5.13
2017-12-13T15:34:25.955Z,3.93
2017-12-13T15:36:53.574Z,4.73
2017-12-13T15:39:21.166Z,3.10
2017-12-13T15:41:49.541Z,4.87
2017-12-13T15:44:17.919Z,4.10
2017-12-13T15:46:45.564Z,6.90
2017-12-13T15:49:13.166Z,6.07
2017-12-13T15:51:40.786Z,5.00
2017-12-13T15:54:08.459Z,4.50
2017-12-13T15:56:36.853Z,4.30
2017-12-13T15:59:05.218Z,3.60
2017-12-13T16:01:33.593Z,5.83
2017-12-13T16:04:01.963Z,5.53
2017-12-13T16:06:29.558Z,4.10
2017-12-13T16:08:57.550Z,5.37
2017-12-13T16:11:25.287Z,5.53
2017-12-13T16:13:52.886Z,4.13
2017-12-13T16:16:20.506Z,3.77
2017-12-13T16:18:48.132Z,4.73
2017-12-13T16:21:15.741Z,5.03
2017-12-13T16:23:43.356Z,3.83
2017-12-13T16:26:11.842Z,3.57
2017-12-13T16:28:39.429Z,5.23
2017-12-13T16:31:07.070Z,5.80
2017-12-13T16:33:35.422Z,6.97
2017-12-13T16:36:03.030Z,6.87
2017-12-13T16:38:30.605Z,5.43
2017-12-13T16:40:58.236Z,5.57
2017-12-13T16:43:26.595Z,5.27
2017-12-13T16:45:54.188Z,5.63
2017-12-13T16:48:21.816Z,7.33
2017-12-13T16:50:49.429Z,5.10
2017-12-13T16:53:17.039Z,8.40
2017-12-13T16:55:44.624Z,5.67
2017-12-13T16:58:12.241Z,4.93
2017-12-13T17:00:39.834Z,7.20
2017-12-13T17:03:08.214Z,5.50
2017-12-13T17:05:36.578Z,6.37
2017-12-13T17:08:04.179Z,4.40
2017-12-13T17:10:31.809Z,6.53
2017-12-13T17:13:00.184Z,6.53
2017-12-13T17:15:28.550Z,7.37
2017-12-13T17:17:56.209Z,8.00
2017-12-13T17:20:23.820Z,8.63
2017-12-13T17:22:51.430Z,8.33
2017-12-13T17:25:19.071Z,8.07
2017-12-13T17:27:46.709Z,8.30
2017-12-13T17:30:14.312Z,8.27
2017-12-13T17:32:41.960Z,10.97
2017-12-13T17:35:09.580Z,7.53
2017-12-13T17:37:37.208Z,8.07
2017-12-13T17:40:05.612Z,9.77
2017-12-13T17:42:33.243Z,6.33
2017-12-13T17:45:01.602Z,6.97
2017-12-13T17:47:29.236Z,6.90
2017-12-13T17:49:56.834Z,10.90
2017-12-13T17:52:24.434Z,9.53
2017-12-13T17:54:52.098Z,9.47
2017-12-13T17:57:19.718Z,8.43
2017-12-13T17:59:47.317Z,7.20
2017-12-13T18:02:14.903Z,9.30
2017-12-13T18:04:42.709Z,8.90
2017-12-13T18:07:10.322Z,10.87
2017-12-13T18:09:37.933Z,8.50
2017-12-13T18:12:05.550Z,8.07
2017-12-13T18:14:33.169Z,7.47
2017-12-13T18:17:00.862Z,7.17
2017-12-13T18:19:28.484Z,7.73
2017-12-13T18:21:56.846Z,6.67
2017-12-13T18:24:24.484Z,8.13
2017-12-13T18:26:52.879Z,8.67
2017-12-13T18:29:20.488Z,12.43
2017-12-13T18:31:48.103Z,8.03
2017-12-13T18:34:15.700Z,8.00
2017-12-13T18:36:43.309Z,8.17
2017-12-13T18:39:10.910Z,8.87
2017-12-13T18:41:39.302Z,8.93
2017-12-13T18:44:06.903Z,10.27
2017-12-13T18:46:34.509Z,8.30
2017-12-13T18:49:02.867Z,10.90
2017-12-13T18:51:30.482Z,16.13
2017-12-13T18:53:58.098Z,58.10
2017-12-13T18:56:26.520Z,15.57
2017-12-13T18:58:54.112Z,9.50
2017-12-13T19:01:21.710Z,10.90
2017-12-13T19:03:50.088Z,7.80
2017-12-13T19:06:18.494Z,6.30
2017-12-13T19:08:46.111Z,7.50
2017-12-13T19:11:13.696Z,7.40
2017-12-13T19:13:41.390Z,8.73
2017-12-13T19:16:09.007Z,6.73
2017-12-13T19:18:36.634Z,7.60
2017-12-13T19:21:04.230Z,6.80
2017-12-13T19:23:32.612Z,7.03
2017-12-13T19:26:00.959Z,6.60
2017-12-13T19:28:28.575Z,8.17
2017-12-13T19:30:56.175Z,8.33
2017-12-13T19:33:23.822Z,8.57
2017-12-13T19:35:51.442Z,7.30
2017-12-13T19:38:19.126Z,7.90
2017-12-13T19:40:46.766Z,6.33
2017-12-13T19:43:14.384Z,7.47
2017-12-13T19:45:42.011Z,7.03
2017-12-13T19:48:09.642Z,6.70
2017-12-13T19:50:37.316Z,7.57
2017-12-13T19:53:05.008Z,5.80
2017-12-13T19:55:32.666Z,5.30
2017-12-13T19:58:00.287Z,6.57
2017-12-13T20:00:28.688Z,8.07
2017-12-13T20:02:56.359Z,5.63
2017-12-13T20:05:23.998Z,7.57
2017-12-13T20:07:51.656Z,6.60
2017-12-13T20:10:19.291Z,7.53
2017-12-13T20:12:46.925Z,6.53
2017-12-13T20:15:16.322Z,7.87
2017-12-13T20:17:43.934Z,8.27
2017-12-13T20:20:11.563Z,6.47
2017-12-13T20:22:39.203Z,10.37
2017-12-13T20:25:06.809Z,8.23
2017-12-13T20:27:34.486Z,6.57
2017-12-13T20:30:02.194Z,6.50
2017-12-13T20:32:30.053Z,8.20
2017-12-13T20:34:57.714Z,7.47
2017-12-13T20:37:25.757Z,6.57
2017-12-13T20:39:53.537Z,6.47
2017-12-13T20:42:21.189Z,7.17
2017-12-13T20:44:48.814Z,6.77
2017-12-13T20:47:17.203Z,7.07
2017-12-13T20:49:45.569Z,6.00
2017-12-13T20:52:13.153Z,6.57
2017-12-13T20:54:40.803Z,5.87
2017-12-13T20:57:09.199Z,7.07
2017-12-13T20:59:36.873Z,6.63
2017-12-13T21:02:04.466Z,7.50
2017-12-13T21:04:32.082Z,8.70
2017-12-13T21:06:59.706Z,7.63
2017-12-13T21:09:27.327Z,6.27
2017-12-13T21:11:54.922Z,7.33
2017-12-13T21:14:22.533Z,5.47
2017-12-13T21:16:50.344Z,7.60
2017-12-13T21:19:17.933Z,11.70
2017-12-13T21:21:46.274Z,5.47
2017-12-13T21:24:13.903Z,11.60
2017-12-13T21:26:41.514Z,5.83
2017-12-13T21:29:09.088Z,6.20
2017-12-13T21:31:36.733Z,6.90
2017-12-13T21:34:04.336Z,5.33
2017-12-13T21:36:31.966Z,7.40
2017-12-13T21:38:59.582Z,5.73
2017-12-13T21:41:27.229Z,7.17
2017-12-13T21:43:54.810Z,6.60
2017-12-13T21:46:22.424Z,6.53
2017-12-13T21:48:50.803Z,8.17
2017-12-13T21:51:19.180Z,7.53
2017-12-13T21:53:46.778Z,6.77
2017-12-13T21:56:14.369Z,10.17
2017-12-13T21:58:41.969Z,6.80
2017-12-13T22:01:09.564Z,16.93
2017-12-13T22:03:37.169Z,7.60
2017-12-13T22:06:05.524Z,7.10
2017-12-13T22:08:33.142Z,8.17
2017-12-13T22:11:00.848Z,8.07
2017-12-13T22:13:28.445Z,7.17
2017-12-13T22:15:56.054Z,12.07
2017-12-13T22:18:23.653Z,13.53
2017-12-13T22:20:52.009Z,9.73
2017-12-13T22:23:19.646Z,9.93
2017-12-13T22:25:47.349Z,10.60
2017-12-13T22:28:15.760Z,12.47
2017-12-13T22:30:43.367Z,11.07
2017-12-13T22:33:10.954Z,10.33
2017-12-13T22:35:39.371Z,10.53
2017-12-13T22:38:06.954Z,9.83
2017-12-13T22:40:34.565Z,11.60
2017-12-13T22:43:02.183Z,14.83
2017-12-13T22:45:29.814Z,14.10
2017-12-13T22:47:57.401Z,15.20
2017-12-13T22:50:25.058Z,13.70
2017-12-13T22:52:52.663Z,11.63
2017-12-13T22:55:21.013Z,11.43
2017-12-13T22:57:48.675Z,10.97
2017-12-13T23:00:16.250Z,11.83
2017-12-13T23:02:44.612Z,10.93
2017-12-13T23:05:12.216Z,10.93
2017-12-13T23:07:39.825Z,9.90
2017-12-13T23:10:07.421Z,9.17
2017-12-13T23:12:35.802Z,11.23
2017-12-13T23:15:04.143Z,8.93
2017-12-13T23:17:31.755Z,10.10
2017-12-13T23:19:59.342Z,8.77
2017-12-13T23:22:26.961Z,7.70
2017-12-13T23:24:55.326Z,9.63
2017-12-13T23:27:23.774Z,8.73
2017-12-13T23:29:51.364Z,7.50
2017-12-13T23:32:19.776Z,9.23
2017-12-13T23:34:47.431Z,6.90
2017-12-13T23:37:15.022Z,6.97
2017-12-13T23:39:42.622Z,6.97
2017-12-13T23:42:10.253Z,7.50
2017-12-13T23:44:37.866Z,6.70
2017-12-13T23:47:05.457Z,7.90
2017-12-13T23:49:33.087Z,7.93
2017-12-13T23:52:00.663Z,7.50
2017-12-13T23:54:28.281Z,8.80
2017-12-13T23:56:56.649Z,8.67
2017-12-13T23:59:24.231Z,8.97
